createdAt,value
2019-05-16T00:01:38.439Z,2.30
2019-05-16T00:04:08.686Z,2.70
2019-05-16T00:06:39.160Z,2.50
2019-05-16T00:09:08.396Z,2.30
2019-05-16T00:11:38.426Z,2.53
2019-05-16T00:14:08.348Z,2.13
2019-05-16T00:16:38.130Z,2.60
2019-05-16T00:19:09.113Z,2.80
2019-05-16T00:21:38.476Z,2.20
2019-05-16T00:24:08.350Z,2.40
2019-05-16T00:26:38.822Z,2.20
2019-05-16T00:29:08.257Z,2.30
2019-05-16T00:31:38.250Z,2.57
2019-05-16T00:34:09.404Z,2.50
2019-05-16T00:36:38.399Z,2.50
2019-05-16T00:39:08.393Z,2.23
2019-05-16T00:41:38.543Z,2.90
2019-05-16T00:44:08.389Z,2.77
2019-05-16T00:46:38.578Z,2.37
2019-05-16T00:49:08.454Z,2.40
2019-05-16T00:51:37.799Z,2.30
2019-05-16T00:54:08.304Z,2.30
2019-05-16T00:56:38.381Z,2.40
2019-05-16T00:59:07.946Z,2.57
2019-05-16T01:01:38.878Z,3.10
2019-05-16T01:04:08.132Z,2.43
2019-05-16T01:06:38.026Z,2.27
2019-05-16T01:09:08.612Z,2.30
2019-05-16T01:11:38.253Z,2.50
2019-05-16T01:14:08.474Z,2.83
2019-05-16T01:16:38.270Z,3.20
2019-05-16T01:23:06.079Z,2.87
2019-05-16T01:25:35.700Z,3.33
2019-05-16T01:28:05.086Z,2.70
2019-05-16T01:30:34.169Z,3.13
2019-05-16T01:33:03.307Z,3.20
2019-05-16T01:35:32.879Z,3.23
2019-05-16T01:38:01.977Z,3.23
2019-05-16T01:40:31.091Z,3.43
2019-05-16T01:43:00.145Z,3.67
2019-05-16T01:45:29.183Z,3.57
2019-05-16T01:47:58.713Z,3.30
2019-05-16T01:50:28.407Z,2.97
2019-05-16T01:52:57.951Z,3.67
2019-05-16T01:55:28.559Z,3.67
2019-05-16T01:57:58.480Z,3.23
2019-05-16T02:00:35.641Z,3.27
2019-05-16T02:02:58.569Z,3.00
2019-05-16T02:05:28.004Z,2.97
2019-05-16T02:07:58.353Z,3.87
2019-05-16T02:10:28.454Z,2.80
2019-05-16T02:12:58.115Z,2.97
2019-05-16T02:15:28.591Z,3.10
2019-05-16T02:17:58.709Z,2.93
2019-05-16T02:20:28.337Z,3.10
2019-05-16T02:22:58.540Z,3.27
2019-05-16T02:25:27.775Z,2.80
2019-05-16T02:27:58.834Z,2.57
2019-05-16T02:30:31.275Z,2.73
2019-05-16T02:33:01.079Z,2.30
2019-05-16T02:35:31.115Z,3.27
2019-05-16T02:38:01.020Z,3.43
2019-05-16T02:40:31.473Z,2.63
2019-05-16T02:43:01.873Z,3.50
2019-05-16T02:45:32.432Z,2.80
2019-05-16T02:48:01.828Z,3.07
2019-05-16T02:50:31.763Z,2.67
2019-05-16T02:53:01.716Z,2.87
2019-05-16T02:55:31.141Z,2.90
2019-05-16T02:58:01.049Z,3.00
2019-05-16T03:00:35.857Z,3.00
2019-05-16T03:03:06.066Z,2.87
2019-05-16T03:05:35.268Z,3.20
2019-05-16T03:08:04.447Z,2.97
2019-05-16T03:10:33.668Z,3.07
2019-05-16T03:13:02.809Z,3.13
2019-05-16T03:15:31.889Z,3.60
2019-05-16T03:18:04.351Z,4.20
2019-05-16T03:20:33.995Z,3.87
2019-05-16T03:23:03.294Z,3.63
2019-05-16T03:25:32.618Z,3.67
2019-05-16T03:28:02.396Z,3.73
2019-05-16T03:30:34.935Z,3.33
2019-05-16T03:33:05.032Z,3.87
2019-05-16T03:35:34.400Z,4.10
2019-05-16T03:38:05.373Z,3.37
2019-05-16T03:40:35.637Z,4.23
2019-05-16T03:43:04.772Z,3.97
2019-05-16T03:45:33.838Z,4.63
2019-05-16T03:48:03.548Z,4.23
2019-05-16T03:50:32.907Z,4.60
2019-05-16T03:53:02.172Z,4.20
2019-05-16T03:55:32.637Z,4.13
2019-05-16T03:58:01.975Z,4.40
2019-05-16T04:00:52.764Z,4.23
2019-05-16T04:03:21.700Z,4.30
2019-05-16T04:05:52.573Z,4.60
2019-05-16T04:08:25.064Z,5.07
2019-05-16T04:10:53.212Z,5.40
2019-05-16T04:13:22.546Z,4.00
2019-05-16T04:15:52.857Z,4.00
2019-05-16T04:18:22.583Z,3.93
2019-05-16T04:20:52.817Z,4.23
2019-05-16T04:23:22.958Z,4.43
2019-05-16T04:25:53.055Z,4.20
2019-05-16T04:28:22.909Z,4.60
2019-05-16T04:30:52.180Z,4.53
2019-05-16T04:33:30.967Z,4.30
2019-05-16T04:36:01.253Z,4.30
2019-05-16T04:38:40.339Z,4.60
2019-05-16T04:41:02.124Z,5.77
2019-05-16T04:43:33.096Z,4.17
2019-05-16T04:46:02.375Z,4.53
2019-05-16T04:48:33.146Z,4.47
2019-05-16T04:51:02.758Z,4.20
2019-05-16T04:53:35.079Z,5.40
2019-05-16T04:56:04.673Z,4.57
2019-05-16T04:58:34.389Z,4.60
2019-05-16T05:01:03.730Z,5.00
2019-05-16T05:03:33.253Z,4.07
2019-05-16T05:06:02.912Z,4.13
2019-05-16T05:08:48.638Z,3.70
2019-05-16T05:11:03.489Z,4.00
2019-05-16T05:13:32.682Z,3.37
2019-05-16T05:16:02.049Z,3.17
2019-05-16T05:18:31.329Z,3.23
2019-05-16T05:21:01.042Z,3.07
2019-05-16T05:23:30.421Z,2.53
2019-05-16T05:26:00.255Z,2.90
2019-05-16T05:28:30.148Z,3.17
2019-05-16T05:30:59.934Z,3.03
2019-05-16T05:33:30.188Z,2.87
2019-05-16T05:36:01.174Z,3.33
2019-05-16T05:38:31.141Z,2.70
2019-05-16T05:41:00.701Z,2.50
2019-05-16T05:43:30.508Z,2.83
2019-05-16T05:46:00.697Z,2.57
2019-05-16T05:48:30.828Z,2.70
2019-05-16T05:51:00.475Z,2.53
2019-05-16T05:53:30.253Z,2.40
2019-05-16T05:56:00.444Z,2.37
2019-05-16T05:58:30.851Z,2.50
2019-05-16T06:01:00.911Z,2.20
2019-05-16T06:03:32.765Z,2.23
2019-05-16T06:06:01.313Z,2.80
2019-05-16T06:08:30.984Z,2.60
2019-05-16T06:11:00.741Z,2.07
2019-05-16T06:13:31.126Z,2.20
2019-05-16T06:16:00.680Z,2.10
2019-05-16T06:18:30.595Z,2.10
2019-05-16T06:21:00.581Z,2.00
2019-05-16T06:23:31.027Z,1.67
2019-05-16T06:26:03.954Z,1.90
2019-05-16T06:28:34.938Z,2.20
2019-05-16T06:31:04.716Z,1.97
2019-05-16T06:33:33.964Z,1.60
2019-05-16T06:36:03.300Z,1.90
2019-05-16T06:38:32.540Z,2.10
2019-05-16T06:41:01.802Z,2.20
2019-05-16T06:43:30.900Z,1.70
2019-05-16T06:46:00.660Z,1.90
2019-05-16T06:48:30.480Z,2.10
2019-05-16T06:51:03.057Z,2.40
2019-05-16T06:53:30.411Z,2.03
2019-05-16T06:56:00.112Z,2.00
2019-05-16T06:58:30.213Z,2.37
2019-05-16T07:01:03.389Z,1.90
2019-05-16T07:03:30.954Z,2.07
2019-05-16T07:06:00.521Z,2.40
2019-05-16T07:08:31.030Z,2.10
2019-05-16T07:11:00.295Z,2.00
2019-05-16T07:13:30.357Z,1.90
2019-05-16T07:16:00.497Z,2.10
2019-05-16T07:18:31.039Z,2.10
2019-05-16T07:21:01.549Z,1.87
2019-05-16T07:23:30.646Z,1.83
2019-05-16T07:26:00.852Z,1.87
2019-05-16T07:28:30.289Z,2.10
2019-05-16T07:31:00.692Z,2.37
2019-05-16T07:33:31.248Z,2.10
2019-05-16T07:36:00.558Z,2.07
2019-05-16T07:38:30.932Z,1.97
2019-05-16T07:41:00.653Z,2.57
2019-05-16T07:43:30.839Z,1.90
2019-05-16T07:46:00.759Z,2.47
2019-05-16T07:48:31.612Z,4.27
2019-05-16T07:51:00.815Z,2.00
2019-05-16T07:53:32.727Z,1.80
2019-05-16T07:56:00.759Z,1.80
2019-05-16T07:58:31.338Z,2.13
2019-05-16T08:01:07.695Z,1.90
2019-05-16T08:03:32.922Z,2.30
2019-05-16T08:06:02.214Z,1.83
2019-05-16T08:08:31.754Z,1.77
2019-05-16T08:11:01.724Z,2.30
2019-05-16T08:13:31.102Z,1.93
2019-05-16T08:16:01.086Z,2.20
2019-05-16T08:18:30.717Z,1.90
2019-05-16T08:21:01.050Z,2.10
2019-05-16T08:23:30.827Z,1.87
2019-05-16T08:26:01.235Z,2.27
2019-05-16T08:28:30.928Z,1.70
2019-05-16T08:31:01.029Z,1.93
2019-05-16T08:33:32.081Z,1.60
2019-05-16T08:36:07.025Z,1.80
2019-05-16T08:38:31.682Z,1.90
2019-05-16T08:41:11.654Z,2.20
2019-05-16T08:43:31.980Z,2.50
2019-05-16T08:46:01.413Z,2.30
2019-05-16T08:48:31.784Z,1.90
2019-05-16T08:51:02.842Z,2.50
2019-05-16T08:53:32.330Z,1.93
2019-05-16T08:56:02.628Z,1.90
2019-05-16T08:58:33.160Z,2.23
2019-05-16T09:01:02.926Z,2.13
2019-05-16T09:03:32.702Z,2.43
2019-05-16T09:06:03.080Z,1.97
2019-05-16T09:08:33.029Z,2.23
2019-05-16T09:11:24.923Z,1.67
2019-05-16T09:13:33.006Z,1.80
2019-05-16T09:16:02.105Z,1.73
2019-05-16T09:18:45.389Z,2.30
2019-05-16T09:21:01.912Z,1.77
2019-05-16T09:23:30.985Z,2.27
2019-05-16T09:25:59.959Z,2.17
2019-05-16T09:28:28.971Z,2.10
2019-05-16T09:30:58.156Z,1.87
2019-05-16T09:33:27.366Z,2.10
2019-05-16T09:35:57.530Z,2.03
2019-05-16T09:38:28.510Z,1.90
2019-05-16T09:40:57.666Z,1.60
2019-05-16T09:43:28.104Z,1.87
2019-05-16T09:46:03.862Z,1.87
2019-05-16T09:48:28.417Z,1.80
2019-05-16T09:50:57.946Z,1.97
2019-05-16T09:53:27.824Z,1.93
2019-05-16T09:55:57.706Z,2.10
2019-05-16T09:58:27.912Z,1.80
2019-05-16T10:00:57.705Z,2.13
2019-05-16T10:03:27.224Z,1.87
2019-05-16T10:05:57.291Z,2.00
2019-05-16T10:08:26.943Z,2.67
2019-05-16T10:10:57.147Z,2.07
2019-05-16T10:13:27.782Z,2.10
2019-05-16T10:15:57.148Z,2.37
2019-05-16T10:18:27.809Z,2.03
2019-05-16T10:20:59.304Z,2.20
2019-05-16T10:23:28.408Z,2.77
2019-05-16T10:25:57.631Z,2.73
2019-05-16T10:28:27.655Z,2.60
2019-05-16T10:30:57.109Z,2.80
2019-05-16T10:33:27.534Z,3.07
2019-05-16T10:35:57.956Z,2.83
2019-05-16T10:38:28.553Z,3.07
2019-05-16T10:40:57.882Z,3.00
2019-05-16T10:43:26.945Z,3.07
2019-05-16T10:45:56.054Z,3.50
2019-05-16T10:48:26.977Z,2.53
2019-05-16T10:50:57.747Z,3.00
2019-05-16T10:53:52.328Z,3.37
2019-05-16T10:55:57.500Z,3.37
2019-05-16T10:58:36.724Z,2.80
2019-05-16T11:01:15.104Z,2.63
2019-05-16T11:03:28.534Z,2.93
2019-05-16T11:06:05.417Z,3.40
2019-05-16T11:08:28.586Z,2.97
2019-05-16T11:10:57.818Z,3.20
2019-05-16T11:13:27.986Z,3.40
2019-05-16T11:15:57.305Z,3.43
2019-05-16T11:18:27.118Z,3.77
2019-05-16T11:20:58.146Z,3.20
2019-05-16T11:23:31.255Z,3.40
2019-05-16T11:25:58.995Z,3.60
2019-05-16T11:28:28.208Z,3.33
2019-05-16T11:31:03.360Z,3.67
2019-05-16T11:33:28.529Z,3.53
2019-05-16T11:35:57.811Z,3.30
2019-05-16T11:38:27.003Z,3.13
2019-05-16T11:40:56.845Z,3.90
2019-05-16T11:43:27.925Z,3.50
2019-05-16T11:45:57.554Z,3.17
2019-05-16T11:48:29.449Z,4.03
2019-05-16T11:50:57.797Z,4.07
2019-05-16T11:53:28.330Z,3.80
2019-05-16T11:56:01.265Z,3.67
2019-05-16T11:58:28.402Z,2.97
2019-05-16T12:00:57.706Z,2.83
2019-05-16T12:03:28.259Z,3.33
2019-05-16T12:05:58.102Z,3.30
2019-05-16T12:08:27.344Z,3.60
2019-05-16T12:10:56.405Z,3.63
2019-05-16T12:13:31.837Z,3.40
2019-05-16T12:15:56.673Z,3.30
2019-05-16T12:18:26.584Z,4.00
2019-05-16T12:20:56.674Z,3.43
2019-05-16T12:23:27.665Z,3.03
2019-05-16T12:25:56.717Z,3.90
2019-05-16T12:28:27.216Z,3.83
2019-05-16T12:30:56.477Z,4.33
2019-05-16T12:33:27.463Z,3.93
2019-05-16T12:35:57.509Z,4.73
2019-05-16T12:38:27.628Z,4.87
2019-05-16T12:40:57.046Z,4.20
2019-05-16T12:43:44.191Z,4.87
2019-05-16T12:45:57.154Z,4.83
2019-05-16T12:48:26.243Z,4.70
2019-05-16T12:50:58.702Z,4.37
2019-05-16T12:53:31.823Z,4.50
2019-05-16T12:55:58.184Z,4.33
2019-05-16T12:58:37.669Z,4.30
2019-05-16T13:01:02.435Z,4.03
2019-05-16T13:03:31.696Z,5.00
2019-05-16T13:06:01.393Z,4.57
2019-05-16T13:08:30.920Z,4.40
2019-05-16T13:11:07.080Z,4.20
2019-05-16T13:13:37.703Z,4.90
2019-05-16T13:16:12.254Z,4.90
2019-05-16T13:18:41.921Z,4.70
2019-05-16T13:21:13.815Z,4.50
2019-05-16T13:23:48.071Z,4.07
2019-05-16T13:26:33.930Z,3.77
2019-05-16T13:29:33.169Z,4.13
2019-05-16T13:32:17.297Z,4.27
2019-05-16T13:34:59.277Z,4.50
2019-05-16T13:37:30.989Z,4.60
2019-05-16T13:40:17.026Z,4.03
2019-05-16T13:42:48.553Z,4.30
2019-05-16T13:45:40.286Z,4.20
2019-05-16T13:48:13.026Z,4.20
2019-05-16T13:51:10.581Z,4.43
2019-05-16T13:53:39.529Z,4.33
2019-05-16T13:56:13.338Z,4.73
2019-05-16T13:58:53.926Z,4.07
2019-05-16T14:01:23.455Z,4.10
2019-05-16T14:03:52.780Z,4.27
2019-05-16T14:06:23.390Z,4.20
2019-05-16T14:08:56.803Z,3.90
2019-05-16T14:11:31.490Z,3.40
2019-05-16T14:14:04.863Z,3.73
2019-05-16T14:16:37.704Z,3.80
2019-05-16T14:19:10.591Z,3.73
2019-05-16T14:21:47.584Z,3.33
2019-05-16T14:24:18.017Z,4.07
2019-05-16T14:26:50.750Z,3.60
2019-05-16T14:29:32.890Z,4.23
2019-05-16T14:32:12.095Z,3.27
2019-05-16T14:34:50.527Z,3.30
2019-05-16T14:37:29.103Z,3.17
2019-05-16T14:40:02.328Z,3.20
2019-05-16T14:42:32.529Z,3.50
2019-05-16T14:45:12.505Z,3.23
2019-05-16T14:47:48.072Z,3.47
2019-05-16T14:50:17.822Z,4.77
2019-05-16T14:52:49.079Z,3.53
2019-05-16T14:55:18.882Z,3.63
2019-05-16T14:57:48.159Z,3.43
2019-05-16T15:00:41.930Z,4.30
2019-05-16T15:03:11.951Z,4.53
2019-05-16T15:05:56.224Z,4.37
2019-05-16T15:08:28.033Z,5.17
2019-05-16T15:10:57.522Z,5.20
2019-05-16T15:13:27.963Z,5.70
2019-05-16T15:15:57.623Z,5.23
2019-05-16T15:18:29.986Z,6.10
2019-05-16T15:21:01.767Z,6.00
2019-05-16T15:23:34.943Z,5.80
2019-05-16T15:26:08.963Z,6.20
2019-05-16T15:28:37.675Z,6.07
2019-05-16T15:31:08.967Z,5.77
2019-05-16T15:33:42.575Z,5.53
2019-05-16T15:36:16.675Z,5.10
2019-05-16T15:38:47.676Z,5.80
2019-05-16T15:41:18.728Z,5.00
2019-05-16T15:43:53.226Z,5.30
2019-05-16T15:46:33.265Z,5.20
2019-05-16T15:49:09.660Z,8.53
2019-05-16T15:51:39.864Z,5.80
2019-05-16T15:54:09.747Z,5.20
2019-05-16T15:56:39.727Z,5.63
2019-05-16T15:59:17.764Z,4.83
2019-05-16T16:01:58.239Z,5.20
2019-05-16T16:04:28.444Z,4.23
2019-05-16T16:06:58.692Z,4.30
2019-05-16T16:09:29.254Z,4.17
2019-05-16T16:11:59.934Z,4.70
2019-05-16T16:14:30.792Z,4.23
2019-05-16T16:17:03.546Z,4.37
2019-05-16T16:19:33.333Z,5.07
2019-05-16T16:22:02.943Z,4.80
2019-05-16T16:24:33.008Z,5.00
2019-05-16T16:27:02.481Z,4.77
2019-05-16T16:29:36.752Z,4.53
2019-05-16T16:32:10.192Z,4.30
2019-05-16T16:34:42.751Z,4.10
2019-05-16T16:37:16.782Z,4.40
2019-05-16T16:39:47.250Z,4.33
2019-05-16T16:42:16.691Z,4.40
2019-05-16T16:44:49.001Z,4.60
2019-05-16T16:47:20.156Z,4.23
2019-05-16T16:49:49.590Z,5.27
2019-05-16T16:52:18.707Z,4.60
2019-05-16T16:54:47.924Z,4.50
2019-05-16T16:57:17.690Z,4.83
2019-05-16T16:59:47.626Z,4.80
2019-05-16T17:02:17.192Z,4.93
2019-05-16T17:04:51.077Z,5.27
2019-05-16T17:07:17.312Z,4.40
2019-05-16T17:09:47.104Z,5.57
2019-05-16T17:12:16.349Z,17.53
2019-05-16T17:14:46.502Z,25.83
2019-05-16T17:17:17.654Z,45.30
2019-05-16T17:19:47.373Z,4.57
2019-05-16T17:22:20.249Z,7.47
2019-05-16T17:24:47.489Z,4.70
2019-05-16T17:27:16.582Z,4.50
2019-05-16T17:29:47.415Z,4.43
2019-05-16T17:32:16.782Z,19.13
2019-05-16T17:34:45.856Z,3.43
2019-05-16T17:37:17.017Z,3.70
2019-05-16T17:39:47.506Z,25.37
2019-05-16T17:42:20.734Z,4.17
2019-05-16T17:44:49.821Z,7.83
2019-05-16T17:47:18.874Z,7.30
2019-05-16T17:49:47.985Z,4.03
2019-05-16T17:52:17.104Z,4.10
2019-05-16T17:54:46.298Z,5.93
2019-05-16T17:57:16.917Z,4.70
2019-05-16T17:59:47.945Z,5.10
2019-05-16T18:02:17.336Z,5.63
2019-05-16T18:04:47.158Z,30.43
2019-05-16T18:07:17.200Z,8.73
2019-05-16T18:09:48.329Z,10.40
2019-05-16T18:12:18.124Z,14.77
2019-05-16T18:14:50.176Z,13.90
2019-05-16T18:17:18.712Z,8.80
2019-05-16T18:19:47.912Z,11.20
2019-05-16T18:22:17.113Z,7.50
2019-05-16T18:24:47.393Z,7.43
2019-05-16T18:27:17.275Z,7.27
2019-05-16T18:29:47.096Z,7.13
2019-05-16T18:32:17.015Z,6.40
2019-05-16T18:34:46.450Z,5.90
2019-05-16T18:37:17.321Z,6.23
2019-05-16T18:39:47.399Z,6.90
2019-05-16T18:42:16.988Z,5.50
2019-05-16T18:44:47.216Z,6.10
2019-05-16T18:47:16.661Z,6.20
2019-05-16T18:49:47.339Z,6.03
2019-05-16T18:52:17.333Z,6.37
2019-05-16T18:54:47.063Z,6.73
2019-05-16T18:57:17.561Z,6.53
2019-05-16T18:59:47.029Z,5.53
2019-05-16T19:02:17.937Z,6.53
2019-05-16T19:04:50.095Z,7.20
2019-05-16T19:07:17.959Z,7.53
2019-05-16T19:09:47.022Z,7.10
2019-05-16T19:12:16.989Z,7.60
2019-05-16T19:14:47.246Z,7.67
2019-05-16T19:17:22.058Z,7.97
2019-05-16T19:19:47.456Z,7.23
2019-05-16T19:22:17.124Z,7.20
2019-05-16T19:24:46.501Z,7.37
2019-05-16T19:27:17.267Z,7.57
2019-05-16T19:29:46.480Z,8.20
2019-05-16T19:32:17.237Z,7.53
2019-05-16T19:34:49.150Z,7.93
2019-05-16T19:37:17.323Z,8.50
2019-05-16T19:39:46.419Z,8.47
2019-05-16T19:42:17.122Z,8.60
2019-05-16T19:44:46.577Z,9.23
2019-05-16T19:47:15.729Z,8.63
2019-05-16T19:49:46.435Z,7.83
2019-05-16T19:52:16.373Z,9.53
2019-05-16T19:54:47.115Z,8.70
2019-05-16T19:57:17.487Z,9.47
2019-05-16T19:59:47.278Z,9.37
2019-05-16T20:02:16.702Z,8.70
2019-05-16T20:04:47.079Z,8.43
2019-05-16T20:07:16.782Z,8.17
2019-05-16T20:09:46.985Z,8.70
2019-05-16T20:12:16.922Z,9.20
2019-05-16T20:14:47.304Z,9.03
2019-05-16T20:17:19.278Z,9.43
2019-05-16T20:19:47.804Z,9.40
2019-05-16T20:22:16.922Z,8.73
2019-05-16T20:24:46.851Z,10.30
2019-05-16T20:27:17.056Z,9.90
2019-05-16T20:29:47.429Z,9.07
2019-05-16T20:32:16.940Z,10.03
2019-05-16T20:34:46.813Z,9.20
2019-05-16T20:37:17.387Z,10.40
2019-05-16T20:39:46.746Z,9.70
2019-05-16T20:42:17.136Z,9.93
2019-05-16T20:44:49.645Z,10.73
2019-05-16T20:47:17.249Z,10.00
2019-05-16T20:49:47.784Z,9.87
2019-05-16T20:52:17.517Z,10.73
2019-05-16T20:54:49.831Z,10.13
2019-05-16T20:57:17.760Z,10.73
2019-05-16T20:59:49.193Z,9.83
2019-05-16T21:02:17.800Z,9.20
2019-05-16T21:04:46.858Z,10.33
2019-05-16T21:07:17.232Z,10.13
2019-05-16T21:09:46.470Z,10.20
2019-05-16T21:12:17.263Z,9.83
2019-05-16T21:14:46.563Z,10.27
2019-05-16T21:17:17.420Z,9.57
2019-05-16T21:19:48.297Z,9.53
2019-05-16T21:22:19.380Z,10.13
2019-05-16T21:24:47.944Z,9.30
2019-05-16T21:27:19.066Z,9.87
2019-05-16T21:29:47.889Z,10.20
2019-05-16T21:32:16.973Z,10.47
2019-05-16T21:34:46.931Z,11.10
2019-05-16T21:37:19.656Z,11.20
2019-05-16T21:39:47.536Z,10.70
2019-05-16T21:42:16.717Z,11.87
2019-05-16T21:44:46.664Z,11.03
2019-05-16T21:47:16.812Z,9.97
2019-05-16T21:49:47.235Z,10.93
2019-05-16T21:52:16.297Z,10.53
2019-05-16T21:54:47.195Z,11.57
2019-05-16T21:57:19.704Z,11.83
2019-05-16T21:59:47.778Z,12.17
2019-05-16T22:02:17.067Z,11.97
2019-05-16T22:04:47.381Z,11.23
2019-05-16T22:07:16.652Z,12.03
2019-05-16T22:09:46.566Z,10.93
2019-05-16T22:12:17.311Z,11.43
2019-05-16T22:14:50.635Z,12.23
2019-05-16T22:17:19.745Z,12.63
2019-05-16T22:19:48.854Z,11.77
2019-05-16T22:22:17.897Z,12.27
2019-05-16T22:24:49.313Z,12.03
2019-05-16T22:27:17.849Z,12.60
2019-05-16T22:29:46.930Z,13.17
2019-05-16T22:32:16.499Z,12.40
2019-05-16T22:34:47.616Z,11.83
2019-05-16T22:37:17.155Z,11.67
2019-05-16T22:39:46.418Z,10.80
2019-05-16T22:42:17.610Z,11.20
2019-05-16T22:44:46.707Z,10.57
2019-05-16T22:47:17.172Z,11.67
2019-05-16T22:49:47.570Z,10.17
2019-05-16T22:52:17.268Z,11.23
2019-05-16T22:54:47.660Z,10.90
2019-05-16T22:57:17.852Z,10.30
2019-05-16T22:59:46.929Z,10.30
2019-05-16T23:02:16.828Z,10.67
2019-05-16T23:04:47.520Z,11.90
2019-05-16T23:07:16.759Z,9.87
2019-05-16T23:09:47.212Z,10.93
2019-05-16T23:12:17.433Z,11.57
2019-05-16T23:14:47.366Z,10.50
2019-05-16T23:17:17.255Z,10.33
2019-05-16T23:19:47.414Z,10.13
2019-05-16T23:22:16.879Z,10.77
2019-05-16T23:24:46.346Z,10.83
2019-05-16T23:27:15.582Z,10.67
2019-05-16T23:29:44.577Z,11.60
2019-05-16T23:32:13.763Z,11.23
2019-05-16T23:34:42.801Z,10.60
2019-05-16T23:37:11.934Z,11.20
2019-05-16T23:39:41.001Z,11.03
2019-05-16T23:42:10.184Z,10.47
2019-05-16T23:44:39.296Z,10.80
2019-05-16T23:47:08.414Z,11.00
2019-05-16T23:49:37.467Z,11.00
2019-05-16T23:52:07.500Z,11.80
2019-05-16T23:54:36.948Z,11.17
2019-05-16T23:57:06.678Z,10.93
2019-05-16T23:59:36.881Z,11.50
